Time;durP1;ratioP1;P1;durP2;ratioP2;P2;SDS_P1;SDS_P2;PMS_P1;PMS_P2;Temp;Humidity;BMP_temperature;BMP_pressure;BME280_temperature;BME280_humidity;BME280_pressure;Samples;Min_cycle;Max_cycle;Signal;HPM_P1;HPM_P2
2022/01/11 00:02:10;;;;;;;524.22;76.30;;;-1.00;99.90;;;;;;4861589;29;20086;-92
2022/01/11 00:04:35;;;;;;;549.45;75.93;;;-1.10;99.90;;;;;;4861899;29;20104;-91
2022/01/11 00:07:04;;;;;;;439.98;67.07;;;-1.10;99.90;;;;;;4864694;29;20109;-91
2022/01/11 00:09:34;;;;;;;477.85;72.68;;;-1.10;99.90;;;;;;4876682;29;20088;-92
2022/01/11 00:12:00;;;;;;;443.30;71.35;;;-1.10;99.90;;;;;;4880884;29;20045;-92
2022/01/11 00:14:26;;;;;;;457.92;73.70;;;-1.10;99.90;;;;;;4869939;29;20123;-93
2022/01/11 00:16:51;;;;;;;367.55;63.00;;;-1.10;99.90;;;;;;4855967;29;20049;-92
2022/01/11 00:19:17;;;;;;;332.77;59.60;;;-1.20;99.90;;;;;;4859814;29;20495;-92
2022/01/11 00:21:47;;;;;;;366.27;63.17;;;-1.10;99.90;;;;;;4861971;29;20108;-92
2022/01/11 00:24:30;;;;;;;444.27;67.80;;;-1.20;99.90;;;;;;4876934;29;20408;-92
2022/01/11 00:27:05;;;;;;;431.42;65.43;;;-1.10;99.90;;;;;;4861917;29;20044;-92
2022/01/11 00:29:33;;;;;;;379.95;60.42;;;-1.10;99.90;;;;;;4864821;29;20041;-92
2022/01/11 00:32:04;;;;;;;533.97;69.70;;;-1.20;99.90;;;;;;4844404;29;20104;-91
2022/01/11 00:34:40;;;;;;;424.05;65.68;;;-1.20;99.90;;;;;;4860262;29;20455;-91
2022/01/11 00:37:06;;;;;;;307.27;59.88;;;-1.20;99.90;;;;;;4860737;29;20751;-93
2022/01/11 00:39:32;;;;;;;446.48;66.25;;;-1.20;99.90;;;;;;4859897;29;20048;-92
2022/01/11 00:41:58;;;;;;;497.50;70.72;;;-1.20;99.90;;;;;;4858178;29;20036;-94
2022/01/11 00:44:24;;;;;;;454.38;68.25;;;-1.20;99.90;;;;;;4862643;29;20040;-92
2022/01/11 00:46:49;;;;;;;405.95;65.93;;;-1.20;99.90;;;;;;4854536;29;20056;-92
2022/01/11 00:49:16;;;;;;;429.23;67.97;;;-1.10;99.90;;;;;;4857188;29;20044;-93
2022/01/11 00:51:42;;;;;;;494.30;72.47;;;-1.20;99.90;;;;;;4854777;29;20132;-92
2022/01/11 00:54:08;;;;;;;332.75;64.53;;;-1.10;99.90;;;;;;4856075;29;20119;-91
2022/01/11 00:56:33;;;;;;;362.48;64.03;;;-1.10;99.90;;;;;;4892613;29;20220;-91
2022/01/11 00:58:59;;;;;;;368.05;67.13;;;-1.10;99.90;;;;;;4874971;29;20539;-91
2022/01/11 01:01:27;;;;;;;403.48;67.38;;;-1.10;99.90;;;;;;4854460;29;20060;-91
2022/01/11 01:03:53;;;;;;;383.40;67.45;;;-1.10;99.90;;;;;;4862140;29;20048;-92
2022/01/11 01:06:18;;;;;;;374.27;65.95;;;-1.20;99.90;;;;;;4857916;29;20056;-91
2022/01/11 01:08:44;;;;;;;443.20;67.25;;;-1.20;99.90;;;;;;4858671;29;20053;-92
2022/01/11 01:11:10;;;;;;;417.10;65.68;;;-1.20;99.90;;;;;;4871792;29;20052;-91
2022/01/11 01:13:36;;;;;;;475.60;72.57;;;-1.20;99.90;;;;;;4873610;29;20075;-90
2022/01/11 01:16:02;;;;;;;401.55;67.13;;;-1.20;99.90;;;;;;4858511;29;20053;-92
2022/01/11 01:18:31;;;;;;;419.48;68.13;;;-1.10;99.90;;;;;;4853544;29;20136;-91
2022/01/11 01:20:56;;;;;;;430.60;70.93;;;-1.10;99.90;;;;;;4842808;29;20504;-91
2022/01/11 01:23:23;;;;;;;434.48;68.35;;;-1.20;99.90;;;;;;4883429;29;20052;-92
2022/01/11 01:25:50;;;;;;;400.10;65.72;;;-1.20;99.90;;;;;;4848597;29;20069;-91
2022/01/11 01:28:17;;;;;;;478.40;72.82;;;-1.20;99.90;;;;;;4870761;29;20045;-91
2022/01/11 01:30:43;;;;;;;397.08;64.72;;;-1.20;99.90;;;;;;4849609;29;20052;-91
2022/01/11 01:33:09;;;;;;;384.73;66.57;;;-1.20;99.90;;;;;;4858359;29;20049;-92
2022/01/11 01:35:43;;;;;;;497.75;70.32;;;-1.20;99.90;;;;;;4858326;29;20498;-91
2022/01/11 01:38:10;;;;;;;330.98;58.53;;;-1.20;99.90;;;;;;4857273;29;20177;-91
2022/01/11 01:40:41;;;;;;;511.48;70.63;;;-1.30;99.90;;;;;;4871744;29;20123;-91
2022/01/11 01:43:09;;;;;;;491.48;72.30;;;-1.30;99.90;;;;;;4855271;29;20121;-90
2022/01/11 01:45:35;;;;;;;582.35;80.78;;;-1.30;99.90;;;;;;4870494;29;20053;-91
2022/01/11 01:48:02;;;;;;;458.42;71.55;;;-1.30;99.90;;;;;;4855532;29;20083;-91
2022/01/11 01:50:29;;;;;;;499.98;74.40;;;-1.30;99.90;;;;;;4872277;29;20127;-91
2022/01/11 01:52:57;;;;;;;422.83;66.65;;;-1.30;99.90;;;;;;4854558;29;20053;-90
2022/01/11 01:55:25;;;;;;;521.05;72.47;;;-1.20;99.90;;;;;;4842635;29;20499;-90
2022/01/11 01:57:51;;;;;;;410.23;66.85;;;-1.30;99.90;;;;;;4845793;29;20112;-90
2022/01/11 02:00:19;;;;;;;435.85;69.43;;;-1.30;99.90;;;;;;4857984;29;20056;-90
2022/01/11 02:02:44;;;;;;;382.42;68.03;;;-1.30;99.90;;;;;;4851117;29;20045;-90
2022/01/11 02:05:10;;;;;;;446.42;69.78;;;-1.30;99.90;;;;;;4878537;29;20067;-91
2022/01/11 02:07:36;;;;;;;494.08;74.05;;;-1.20;99.90;;;;;;4851876;29;20069;-90
2022/01/11 02:10:05;;;;;;;480.23;72.93;;;-1.20;99.90;;;;;;4850027;29;20046;-90
2022/01/11 02:12:30;;;;;;;495.48;71.68;;;-1.20;99.90;;;;;;4856421;29;20089;-90
2022/01/11 02:14:56;;;;;;;428.30;67.10;;;-1.30;99.90;;;;;;4861409;29;20049;-91
2022/01/11 02:17:22;;;;;;;520.75;77.25;;;-1.30;99.90;;;;;;4860412;29;20100;-88
2022/01/11 02:19:47;;;;;;;493.58;72.65;;;-1.20;99.90;;;;;;4845801;29;20045;-90
2022/01/11 02:22:13;;;;;;;462.85;71.05;;;-1.20;99.90;;;;;;4853719;29;20695;-91
2022/01/11 02:24:39;;;;;;;456.98;70.53;;;-1.20;99.90;;;;;;4860579;29;20056;-91
2022/01/11 02:27:05;;;;;;;548.90;76.80;;;-1.20;99.90;;;;;;4860397;29;20048;-91
2022/01/11 02:29:31;;;;;;;595.65;80.80;;;-1.30;99.90;;;;;;4859435;29;20044;-91
2022/01/11 02:31:57;;;;;;;487.25;72.82;;;-1.20;99.90;;;;;;4845403;29;20041;-92
2022/01/11 02:34:23;;;;;;;433.23;66.35;;;-1.20;99.90;;;;;;4854215;29;20492;-91
2022/01/11 02:36:49;;;;;;;514.15;77.88;;;-1.20;99.90;;;;;;4873317;29;20049;-91
2022/01/11 02:39:14;;;;;;;498.85;74.50;;;-1.20;99.90;;;;;;4860011;29;20052;-91
2022/01/11 02:41:52;;;;;;;520.40;77.28;;;-1.20;99.90;;;;;;4857892;29;20057;-91
2022/01/11 02:44:17;;;;;;;609.35;87.97;;;-1.20;99.90;;;;;;4856942;29;20077;-90
2022/01/11 02:46:43;;;;;;;525.80;82.32;;;-1.20;99.90;;;;;;4859637;29;20068;-91
2022/01/11 02:49:08;;;;;;;578.72;86.13;;;-1.10;99.90;;;;;;4853109;29;20538;-91
2022/01/11 02:51:34;;;;;;;570.60;81.35;;;-1.00;99.90;;;;;;4849786;29;20453;-91
2022/01/11 02:54:00;;;;;;;593.88;84.40;;;-1.00;99.90;;;;;;4850910;29;20048;-91
2022/01/11 02:56:26;;;;;;;608.72;84.55;;;-1.00;99.90;;;;;;4876068;29;20495;-91
2022/01/11 02:58:53;;;;;;;600.85;85.32;;;-0.90;99.90;;;;;;4844736;29;20484;-92
2022/01/11 03:01:18;;;;;;;613.35;83.55;;;-0.90;99.90;;;;;;4857470;29;20131;-91
2022/01/11 03:03:44;;;;;;;595.65;86.38;;;-0.90;99.90;;;;;;4871715;29;20124;-90
2022/01/11 03:06:10;;;;;;;636.53;86.82;;;-0.90;99.90;;;;;;4862804;29;20056;-91
2022/01/11 03:08:41;;;;;;;556.03;83.65;;;-0.90;99.90;;;;;;4858047;29;20056;-90
2022/01/11 03:11:07;;;;;;;543.15;79.53;;;-0.90;99.90;;;;;;4857836;29;20044;-91
2022/01/11 03:13:35;;;;;;;516.13;76.93;;;-0.80;99.90;;;;;;4861250;29;20044;-91
2022/01/11 03:16:01;;;;;;;536.13;78.05;;;-0.80;99.90;;;;;;4862830;29;20048;-91
2022/01/11 03:18:27;;;;;;;549.28;76.03;;;-0.80;99.90;;;;;;4861400;29;20471;-91
2022/01/11 03:20:53;;;;;;;480.15;72.63;;;-0.80;99.90;;;;;;4854811;29;20085;-91
2022/01/11 03:23:20;;;;;;;561.05;79.28;;;-0.80;99.90;;;;;;4866397;29;20044;-91
2022/01/11 03:25:48;;;;;;;487.90;76.13;;;-0.80;99.90;;;;;;4877999;29;20041;-91
2022/01/11 03:28:13;;;;;;;529.97;78.78;;;-0.80;99.90;;;;;;4858767;29;20123;-91
2022/01/11 03:30:39;;;;;;;516.17;76.13;;;-0.80;99.90;;;;;;4859856;29;20065;-91
2022/01/11 03:33:08;;;;;;;438.77;73.40;;;-0.80;99.90;;;;;;4851939;29;20056;-90
2022/01/11 03:35:35;;;;;;;338.73;61.75;;;-0.70;99.90;;;;;;4877780;29;20482;-91
2022/01/11 03:38:00;;;;;;;473.63;72.40;;;-0.70;99.90;;;;;;4862267;29;20113;-91
2022/01/11 03:40:27;;;;;;;449.20;73.22;;;-0.70;99.90;;;;;;4858749;29;20084;-90
2022/01/11 03:42:53;;;;;;;417.55;69.38;;;-0.70;99.90;;;;;;4852834;29;20152;-91
2022/01/11 03:45:22;;;;;;;416.55;72.63;;;-0.80;99.90;;;;;;4865809;29;20560;-90
2022/01/11 03:47:50;;;;;;;364.05;66.45;;;-0.70;99.90;;;;;;4862455;29;20043;-90
2022/01/11 03:50:16;;;;;;;422.40;72.40;;;-0.70;99.90;;;;;;4856867;29;20053;-89
2022/01/11 03:52:44;;;;;;;460.73;76.40;;;-0.70;99.90;;;;;;4859260;29;20043;-90
2022/01/11 03:55:20;;;;;;;488.88;80.78;;;-0.80;99.90;;;;;;4869110;29;20049;-91
2022/01/11 03:57:47;;;;;;;492.15;82.35;;;-0.70;99.90;;;;;;4856267;29;20131;-91
2022/01/11 04:00:16;;;;;;;542.67;90.50;;;-0.70;99.90;;;;;;4847906;29;20041;-91
2022/01/11 04:02:42;;;;;;;468.95;81.10;;;-0.60;99.90;;;;;;4864574;29;20045;-92
2022/01/11 04:05:11;;;;;;;441.90;79.97;;;-0.60;99.90;;;;;;4854777;29;20077;-91
2022/01/11 04:07:37;;;;;;;410.42;79.32;;;-0.60;99.90;;;;;;4861836;29;20139;-91
2022/01/11 04:10:03;;;;;;;534.35;87.50;;;-0.60;99.90;;;;;;4859590;29;20100;-91
2022/01/11 04:12:29;;;;;;;500.77;90.82;;;-0.60;99.90;;;;;;4852976;29;20052;-91
2022/01/11 04:14:54;;;;;;;455.70;84.70;;;-0.60;99.90;;;;;;4858572;29;20048;-91
2022/01/11 04:17:20;;;;;;;513.15;89.35;;;-0.50;99.90;;;;;;4857698;29;20435;-91
2022/01/11 04:19:47;;;;;;;460.15;81.28;;;-0.50;99.90;;;;;;4862229;29;20076;-91
2022/01/11 04:22:13;;;;;;;503.73;85.18;;;-0.50;99.90;;;;;;4857769;29;20036;-92
2022/01/11 04:24:39;;;;;;;560.50;90.80;;;-0.50;99.90;;;;;;4848243;29;20071;-92
2022/01/11 04:27:05;;;;;;;484.75;83.97;;;-0.60;99.90;;;;;;4852882;29;20041;-91
2022/01/11 04:29:31;;;;;;;510.42;92.05;;;-0.50;99.90;;;;;;4865826;29;20488;-91
2022/01/11 04:31:56;;;;;;;442.38;83.10;;;-0.50;99.90;;;;;;4845002;29;20049;-92
2022/01/11 04:34:22;;;;;;;459.42;87.57;;;-0.50;99.90;;;;;;4859454;29;20508;-91
2022/01/11 04:36:47;;;;;;;485.75;84.43;;;-0.50;99.90;;;;;;4862087;29;20535;-91
2022/01/11 04:39:14;;;;;;;497.98;86.07;;;-0.50;99.90;;;;;;4864970;29;20487;-91
2022/01/11 04:41:40;;;;;;;491.15;85.03;;;-0.50;99.90;;;;;;4851020;29;20495;-91
2022/01/11 04:44:07;;;;;;;465.55;81.82;;;-0.50;99.90;;;;;;4873388;29;20041;-91
2022/01/11 04:46:33;;;;;;;549.08;93.82;;;-0.50;99.90;;;;;;4859836;29;20076;-91
2022/01/11 04:49:01;;;;;;;584.50;97.25;;;-0.50;99.90;;;;;;4855075;29;20053;-91
2022/01/11 04:51:28;;;;;;;470.75;83.53;;;-0.50;99.90;;;;;;4867180;29;20512;-92
2022/01/11 04:53:53;;;;;;;500.10;87.13;;;-0.50;99.90;;;;;;4891245;29;20056;-90
2022/01/11 04:56:19;;;;;;;451.05;83.07;;;-0.50;99.90;;;;;;4860631;29;20145;-91
2022/01/11 04:58:45;;;;;;;418.95;78.20;;;-0.40;99.90;;;;;;4857420;29;20073;-92
2022/01/11 05:01:11;;;;;;;340.63;77.38;;;-0.50;99.90;;;;;;4862237;29;20059;-91
2022/01/11 05:03:37;;;;;;;392.27;77.22;;;-0.50;99.90;;;;;;4860779;29;20064;-92
2022/01/11 05:06:04;;;;;;;357.30;80.93;;;-0.40;99.90;;;;;;4869123;29;20044;-91
2022/01/11 05:08:30;;;;;;;334.90;76.70;;;-0.50;99.90;;;;;;4858611;29;20045;-92
2022/01/11 05:10:56;;;;;;;345.75;76.22;;;-0.40;99.90;;;;;;4875264;29;20045;-91
2022/01/11 05:13:21;;;;;;;348.20;81.55;;;-0.40;99.90;;;;;;4857882;29;20037;-91
2022/01/11 05:15:47;;;;;;;321.33;71.18;;;-0.40;99.90;;;;;;4857166;29;20427;-90
2022/01/11 05:18:13;;;;;;;329.40;80.68;;;-0.40;99.90;;;;;;4856040;29;20443;-91
2022/01/11 05:20:40;;;;;;;375.85;78.72;;;-0.40;99.90;;;;;;4864182;29;20136;-91
2022/01/11 05:23:07;;;;;;;398.63;82.97;;;-0.40;99.90;;;;;;4864146;29;20051;-91
2022/01/11 05:25:33;;;;;;;409.77;86.93;;;-0.40;99.90;;;;;;4873428;29;20077;-90
2022/01/11 05:28:01;;;;;;;408.05;83.72;;;-0.40;99.90;;;;;;4863635;29;20056;-90
2022/01/11 05:30:28;;;;;;;422.80;87.97;;;-0.40;99.90;;;;;;4873453;29;20044;-90
2022/01/11 05:32:54;;;;;;;418.95;93.85;;;-0.40;99.90;;;;;;4859981;29;20041;-90
2022/01/11 05:35:21;;;;;;;387.67;85.47;;;-0.40;99.90;;;;;;4862692;29;20059;-90
2022/01/11 05:37:47;;;;;;;332.58;81.88;;;-0.40;99.90;;;;;;4852602;29;20049;-91
2022/01/11 05:40:15;;;;;;;334.98;85.60;;;-0.40;99.90;;;;;;4860290;29;20491;-90
2022/01/11 05:42:41;;;;;;;339.55;84.10;;;-0.40;99.90;;;;;;4860139;29;20032;-91
2022/01/11 05:45:09;;;;;;;323.10;76.55;;;-0.30;99.90;;;;;;4859061;29;20050;-90
2022/01/11 05:47:35;;;;;;;305.17;71.30;;;-0.30;99.90;;;;;;4879546;29;20033;-91
2022/01/11 05:50:03;;;;;;;302.58;74.38;;;-0.40;99.90;;;;;;4861326;29;20145;-90
2022/01/11 05:52:29;;;;;;;303.52;73.32;;;-0.30;99.90;;;;;;4897677;29;20039;-90
2022/01/11 05:54:55;;;;;;;369.88;87.15;;;-0.30;99.90;;;;;;4861424;29;20120;-92
2022/01/11 05:57:20;;;;;;;408.77;90.72;;;-0.30;99.90;;;;;;4857252;29;20772;-91
2022/01/11 05:59:46;;;;;;;354.00;86.00;;;-0.30;99.90;;;;;;4877364;29;20133;-91
2022/01/11 06:02:11;;;;;;;306.80;75.25;;;-0.30;99.90;;;;;;4855217;29;20476;-92
2022/01/11 06:04:37;;;;;;;267.52;67.20;;;-0.40;99.90;;;;;;4852915;29;20097;-93
2022/01/11 06:07:03;;;;;;;265.77;71.35;;;-0.40;99.90;;;;;;4888367;29;20053;-91
2022/01/11 06:09:28;;;;;;;261.95;73.95;;;-0.40;99.90;;;;;;4879219;29;20037;-93
2022/01/11 06:11:55;;;;;;;248.55;62.38;;;-0.40;99.90;;;;;;4854999;29;20522;-91
2022/01/11 06:14:21;;;;;;;260.23;68.80;;;-0.30;99.90;;;;;;4885185;29;20139;-92
2022/01/11 06:16:47;;;;;;;259.17;70.10;;;-0.40;99.90;;;;;;4862018;29;20066;-91
2022/01/11 06:19:12;;;;;;;264.45;63.97;;;-0.40;99.90;;;;;;4863810;29;20048;-90
2022/01/11 06:21:38;;;;;;;255.27;67.63;;;-0.40;99.90;;;;;;4853324;29;20121;-92
2022/01/11 06:24:04;;;;;;;240.27;64.22;;;-0.40;99.90;;;;;;4860416;29;20052;-91
2022/01/11 06:26:30;;;;;;;233.30;59.42;;;-0.40;99.90;;;;;;4856319;29;20123;-91
2022/01/11 06:28:56;;;;;;;200.93;57.00;;;-0.40;99.90;;;;;;4861227;29;20087;-92
2022/01/11 06:31:22;;;;;;;191.75;54.83;;;-0.40;99.90;;;;;;4859577;29;20048;-90
2022/01/11 06:33:49;;;;;;;192.90;55.40;;;-0.40;99.90;;;;;;4864183;29;20051;-92
2022/01/11 06:36:14;;;;;;;180.85;54.05;;;-0.50;99.90;;;;;;4864129;29;20119;-92
2022/01/11 06:38:42;;;;;;;198.32;57.72;;;-0.50;99.90;;;;;;4864464;29;20088;-92
2022/01/11 06:41:09;;;;;;;180.27;53.97;;;-0.50;99.90;;;;;;4859472;29;20044;-92
2022/01/11 06:43:35;;;;;;;179.18;52.88;;;-0.50;99.90;;;;;;4864184;29;20044;-92
2022/01/11 06:46:01;;;;;;;184.43;52.38;;;-0.50;99.90;;;;;;4864591;29;20419;-91
2022/01/11 06:48:27;;;;;;;164.88;49.13;;;-0.50;99.90;;;;;;4861292;29;20040;-92
2022/01/11 06:50:53;;;;;;;164.45;48.80;;;-0.50;99.90;;;;;;4861408;29;20045;-92
2022/01/11 06:53:18;;;;;;;165.20;49.38;;;-0.50;99.90;;;;;;4889657;29;20069;-90
2022/01/11 06:55:44;;;;;;;155.48;51.08;;;-0.50;99.90;;;;;;4861537;29;20139;-92
2022/01/11 06:58:09;;;;;;;150.60;45.53;;;-0.50;99.90;;;;;;4864708;29;20405;-91
2022/01/11 07:00:35;;;;;;;144.75;43.75;;;-0.50;99.90;;;;;;4878971;29;20487;-91
2022/01/11 07:03:01;;;;;;;148.80;44.88;;;-0.50;99.90;;;;;;4868613;29;20459;-92
2022/01/11 07:05:26;;;;;;;151.98;46.75;;;-0.60;99.90;;;;;;4870219;29;20044;-92
2022/01/11 07:07:52;;;;;;;146.65;46.35;;;-0.60;99.90;;;;;;4861231;29;20411;-91
2022/01/11 07:10:18;;;;;;;135.38;44.83;;;-0.60;99.90;;;;;;4860937;29;20495;-92
2022/01/11 07:12:44;;;;;;;128.73;41.47;;;-0.60;99.90;;;;;;4855857;29;20380;-91
2022/01/11 07:15:10;;;;;;;132.50;42.13;;;-0.60;99.90;;;;;;4862860;29;20053;-92
2022/01/11 07:17:36;;;;;;;135.10;42.35;;;-0.60;99.90;;;;;;4858587;29;20131;-93
2022/01/11 07:20:04;;;;;;;133.50;40.88;;;-0.60;99.90;;;;;;4858208;29;20135;-92
2022/01/11 07:22:29;;;;;;;136.75;45.03;;;-0.60;99.90;;;;;;4861523;29;20139;-91
2022/01/11 07:24:55;;;;;;;121.63;43.63;;;-0.60;99.90;;;;;;4875349;29;20530;-92
2022/01/11 07:27:21;;;;;;;135.50;43.25;;;-0.70;99.90;;;;;;4863916;29;20053;-92
2022/01/11 07:29:46;;;;;;;136.38;42.90;;;-0.70;99.90;;;;;;4856477;29;20044;-92
2022/01/11 07:32:12;;;;;;;135.85;40.55;;;-0.70;99.90;;;;;;4861152;29;20073;-91
2022/01/11 07:34:38;;;;;;;133.32;41.42;;;-0.60;99.90;;;;;;4852373;29;20137;-92
2022/01/11 07:37:04;;;;;;;121.45;39.72;;;-0.70;99.90;;;;;;4863864;29;20094;-92
2022/01/11 07:39:29;;;;;;;107.82;37.58;;;-0.70;99.90;;;;;;4861790;29;20045;-93
2022/01/11 07:41:55;;;;;;;117.45;37.40;;;-0.70;99.90;;;;;;4857628;29;20045;-94
2022/01/11 07:44:21;;;;;;;121.43;39.08;;;-0.60;99.90;;;;;;4859566;29;20551;-91
2022/01/11 07:46:46;;;;;;;123.13;39.30;;;-0.70;99.90;;;;;;4848085;29;20045;-92
2022/01/11 07:49:12;;;;;;;97.03;33.67;;;-0.70;99.90;;;;;;4852541;29;20109;-92
2022/01/11 07:51:38;;;;;;;111.35;36.88;;;-0.60;99.90;;;;;;4859390;29;20056;-91
2022/01/11 07:54:06;;;;;;;106.43;36.97;;;-0.70;99.90;;;;;;4878756;29;20544;-92
2022/01/11 07:56:31;;;;;;;112.85;35.83;;;-0.70;99.90;;;;;;4859186;29;20084;-95
2022/01/11 07:58:57;;;;;;;110.55;36.40;;;-0.70;99.90;;;;;;4858827;29;20072;-92
2022/01/11 08:01:22;;;;;;;102.38;36.00;;;-0.70;99.90;;;;;;4878617;29;20068;-91
2022/01/11 08:03:48;;;;;;;93.65;33.28;;;-0.70;99.90;;;;;;4861967;29;20407;-92
2022/01/11 08:06:14;;;;;;;105.88;35.08;;;-0.70;99.90;;;;;;4853429;29;20079;-91
2022/01/11 08:08:40;;;;;;;96.20;34.90;;;-0.70;99.90;;;;;;4861735;29;20059;-91
2022/01/11 08:11:07;;;;;;;104.30;36.63;;;-0.70;99.90;;;;;;4862575;29;20056;-90
2022/01/11 08:13:32;;;;;;;112.30;34.67;;;-0.60;99.90;;;;;;4860773;29;20411;-92
2022/01/11 08:15:58;;;;;;;101.50;36.00;;;-0.60;99.90;;;;;;4847873;29;20048;-92
2022/01/11 08:18:24;;;;;;;91.63;32.90;;;-0.60;99.90;;;;;;4853269;29;20044;-89
2022/01/11 08:20:50;;;;;;;91.88;32.80;;;-0.60;99.90;;;;;;4860478;29;20112;-92
2022/01/11 08:23:15;;;;;;;102.57;33.53;;;-0.60;99.90;;;;;;4861956;29;20051;-91
2022/01/11 08:25:41;;;;;;;100.93;34.25;;;-0.50;99.90;;;;;;4857817;29;20407;-91
2022/01/11 08:28:07;;;;;;;109.93;36.15;;;-0.40;99.90;;;;;;4848397;29;20041;-91
2022/01/11 08:30:34;;;;;;;94.97;32.45;;;-0.40;99.90;;;;;;4877253;29;20044;-91
2022/01/11 08:33:00;;;;;;;85.45;30.38;;;-0.30;99.90;;;;;;4858057;29;20052;-90
2022/01/11 08:35:30;;;;;;;82.22;31.33;;;-0.30;99.90;;;;;;4861518;29;20180;-88
2022/01/11 08:37:56;;;;;;;88.88;29.48;;;-0.30;99.90;;;;;;4853419;29;20036;-88
2022/01/11 08:40:22;;;;;;;83.57;27.85;;;-0.30;99.90;;;;;;4866708;29;20139;-89
2022/01/11 08:42:48;;;;;;;89.07;30.75;;;-0.40;99.90;;;;;;4857701;29;20136;-87
2022/01/11 08:45:14;;;;;;;75.57;30.45;;;-0.30;99.90;;;;;;4858689;29;20041;-87
2022/01/11 08:47:39;;;;;;;81.40;29.40;;;-0.40;99.90;;;;;;4850713;29;20491;-94
2022/01/11 08:50:06;;;;;;;82.18;28.60;;;-0.50;99.90;;;;;;4861071;29;20510;-91
2022/01/11 08:52:32;;;;;;;76.97;28.17;;;-0.40;99.90;;;;;;4857815;29;20036;-91
2022/01/11 08:54:58;;;;;;;79.90;29.10;;;-0.30;99.90;;;;;;4855097;29;20045;-91
2022/01/11 08:57:24;;;;;;;72.72;25.92;;;-0.40;99.90;;;;;;4865012;29;20041;-92
2022/01/11 08:59:50;;;;;;;82.85;28.92;;;-0.40;99.90;;;;;;4863153;29;20177;-91
2022/01/11 09:02:16;;;;;;;79.88;29.05;;;-0.40;99.90;;;;;;4857346;29;20120;-94
2022/01/11 09:04:43;;;;;;;84.70;29.10;;;-0.40;99.90;;;;;;4858740;29;20048;-91
2022/01/11 09:07:08;;;;;;;78.05;29.33;;;-0.40;99.90;;;;;;4863832;29;20833;-92
2022/01/11 09:09:34;;;;;;;83.82;31.48;;;-0.30;99.90;;;;;;4863582;29;20048;-93
2022/01/11 09:12:04;;;;;;;77.30;27.83;;;-0.40;99.90;;;;;;4856572;29;20104;-94
2022/01/11 09:14:30;;;;;;;87.20;29.75;;;-0.50;99.90;;;;;;4894916;29;20120;-92
2022/01/11 09:16:57;;;;;;;85.30;28.90;;;-0.40;99.90;;;;;;4866266;29;20490;-93
2022/01/11 09:19:24;;;;;;;84.60;29.05;;;-0.40;99.90;;;;;;4870718;29;20108;-92
2022/01/11 09:21:49;;;;;;;95.97;32.58;;;-0.40;99.90;;;;;;4856517;29;20064;-90
2022/01/11 09:24:19;;;;;;;105.95;33.97;;;-0.40;99.90;;;;;;4865591;29;20059;-91
2022/01/11 09:26:48;;;;;;;104.43;31.95;;;-0.30;99.90;;;;;;4863181;29;20048;-89
2022/01/11 09:29:15;;;;;;;101.45;33.38;;;-0.20;99.90;;;;;;4861627;29;20127;-93
2022/01/11 09:31:41;;;;;;;98.55;33.28;;;-0.20;99.90;;;;;;4865023;29;20113;-94
2022/01/11 09:34:07;;;;;;;95.78;32.55;;;-0.10;99.90;;;;;;4864828;29;20088;-92
2022/01/11 09:36:33;;;;;;;94.68;33.05;;;0.00;99.90;;;;;;4865187;29;20447;-93
2022/01/11 09:38:59;;;;;;;97.13;33.30;;;0.00;99.90;;;;;;4857514;29;20071;-94
2022/01/11 09:41:24;;;;;;;91.53;31.52;;;0.00;99.90;;;;;;4861509;29;20484;-92
2022/01/11 09:43:50;;;;;;;92.22;32.10;;;0.00;99.90;;;;;;4865162;29;20048;-92
2022/01/11 09:46:16;;;;;;;85.00;30.50;;;0.00;99.90;;;;;;4850332;29;20045;-90
2022/01/11 09:48:44;;;;;;;92.18;31.40;;;0.10;99.90;;;;;;4861993;29;20092;-90
2022/01/11 09:51:09;;;;;;;96.85;32.65;;;0.00;99.90;;;;;;4863177;29;20096;-94
2022/01/11 09:53:35;;;;;;;90.22;31.67;;;0.00;99.90;;;;;;4858813;29;20041;-94
2022/01/11 09:56:05;;;;;;;96.90;32.08;;;0.10;99.90;;;;;;4864678;29;20052;-93
2022/01/11 09:58:32;;;;;;;91.78;32.28;;;0.10;99.90;;;;;;4865140;29;20048;-94
2022/01/11 10:00:59;;;;;;;86.07;29.85;;;0.10;99.90;;;;;;4864417;29;20044;-93
2022/01/11 10:03:25;;;;;;;92.72;32.78;;;0.10;99.90;;;;;;4864614;29;20040;-89
2022/01/11 10:05:51;;;;;;;89.82;31.48;;;0.10;99.90;;;;;;4864537;29;20044;-93
2022/01/11 10:08:28;;;;;;;91.95;32.35;;;0.20;99.90;;;;;;4862862;29;20108;-94
2022/01/11 10:10:57;;;;;;;85.47;31.63;;;0.20;99.90;;;;;;4860462;29;20107;-92
2022/01/11 10:13:32;;;;;;;92.90;30.42;;;0.20;99.90;;;;;;4857968;29;20040;-94
2022/01/11 10:16:18;;;;;;;80.93;30.80;;;0.20;99.90;;;;;;4864905;29;20053;-93
2022/01/11 10:18:43;;;;;;;87.25;31.02;;;0.20;99.90;;;;;;4875535;29;20061;-91
2022/01/11 10:21:37;;;;;;;85.00;30.08;;;0.30;99.90;;;;;;4863457;29;20044;-92
2022/01/11 10:24:21;;;;;;;84.28;30.80;;;0.20;99.90;;;;;;4861652;29;20045;-91
2022/01/11 10:26:47;;;;;;;86.55;30.98;;;0.30;99.90;;;;;;4878779;29;20052;-91
2022/01/11 10:29:36;;;;;;;82.78;30.40;;;0.30;99.90;;;;;;4863628;29;20167;-93
2022/01/11 10:32:17;;;;;;;84.40;30.92;;;0.30;99.90;;;;;;4859238;29;20045;-94
2022/01/11 10:34:47;;;;;;;86.13;31.30;;;0.40;99.90;;;;;;4864147;29;20044;-94
2022/01/11 10:37:14;;;;;;;77.80;30.52;;;0.40;99.90;;;;;;4857671;29;20044;-90
2022/01/11 10:39:43;;;;;;;84.88;30.65;;;0.40;99.90;;;;;;4860202;29;20063;-92
2022/01/11 10:42:25;;;;;;;84.90;31.50;;;0.40;99.90;;;;;;4862733;29;20055;-91
2022/01/11 10:44:58;;;;;;;81.68;30.75;;;0.50;99.90;;;;;;4859169;29;20136;-87
2022/01/11 10:47:47;;;;;;;76.70;28.70;;;0.50;99.90;;;;;;4893902;29;20041;-93
2022/01/11 10:50:22;;;;;;;67.85;27.33;;;0.50;99.90;;;;;;4859224;29;20476;-91
2022/01/11 10:52:48;;;;;;;76.65;29.33;;;0.60;99.90;;;;;;4876267;29;20054;-93
2022/01/11 10:55:17;;;;;;;78.95;30.58;;;0.60;99.90;;;;;;4864866;29;20130;-93
2022/01/11 10:57:48;;;;;;;75.13;31.38;;;0.80;99.90;;;;;;4849255;29;20558;-92
2022/01/11 11:00:26;;;;;;;79.28;31.45;;;0.80;99.90;;;;;;4863089;29;20046;-89
2022/01/11 11:03:09;;;;;;;81.03;32.00;;;0.90;99.90;;;;;;4860782;29;20044;-91
2022/01/11 11:05:46;;;;;;;82.82;31.27;;;1.10;99.90;;;;;;4864150;29;20040;-93
2022/01/11 11:08:13;;;;;;;84.25;32.72;;;1.30;99.90;;;;;;4893844;29;20056;-93
2022/01/11 11:10:55;;;;;;;80.75;31.05;;;1.40;99.90;;;;;;4872299;29;20081;-91
2022/01/11 11:13:27;;;;;;;67.45;27.98;;;1.60;99.90;;;;;;4894419;29;20627;-90
2022/01/11 11:15:59;;;;;;;69.57;28.65;;;1.60;99.90;;;;;;4855776;29;20096;-91
2022/01/11 11:18:33;;;;;;;69.43;28.08;;;1.80;99.90;;;;;;4859932;29;20480;-91
2022/01/11 11:21:12;;;;;;;62.28;26.85;;;1.90;99.90;;;;;;4877256;29;20492;-90
2022/01/11 11:23:38;;;;;;;72.13;28.13;;;1.80;99.90;;;;;;4869967;29;20144;-91
2022/01/11 11:26:04;;;;;;;58.22;25.85;;;1.90;99.90;;;;;;4875322;29;20072;-91
2022/01/11 11:28:29;;;;;;;60.75;26.23;;;1.90;99.90;;;;;;4859295;29;20525;-91
2022/01/11 11:30:56;;;;;;;63.35;26.17;;;2.00;99.90;;;;;;4870959;29;20044;-91
2022/01/11 11:33:21;;;;;;;63.22;27.13;;;1.80;99.90;;;;;;4876185;29;20045;-90
2022/01/11 11:35:49;;;;;;;56.92;26.23;;;2.00;99.90;;;;;;4854737;29;20045;-90
2022/01/11 11:38:17;;;;;;;57.13;25.20;;;2.20;99.90;;;;;;4861610;29;20558;-90
2022/01/11 11:40:44;;;;;;;63.08;25.40;;;2.40;99.90;;;;;;4860730;29;20044;-89
2022/01/11 11:43:12;;;;;;;53.53;24.02;;;2.70;99.90;;;;;;4862403;29;20092;-91
2022/01/11 11:45:39;;;;;;;54.75;24.10;;;2.90;99.90;;;;;;4851687;29;20504;-90
2022/01/11 11:48:06;;;;;;;49.88;21.63;;;3.00;99.90;;;;;;4861947;29;20123;-90
2022/01/11 11:50:33;;;;;;;53.10;22.75;;;3.20;99.90;;;;;;4863003;29;20538;-92
2022/01/11 11:53:00;;;;;;;52.15;22.33;;;3.30;99.90;;;;;;4855068;29;20095;-90
2022/01/11 11:55:29;;;;;;;52.92;23.52;;;3.30;99.90;;;;;;4862309;29;20786;-88
2022/01/11 11:57:57;;;;;;;54.08;24.35;;;3.30;99.90;;;;;;4858259;29;20072;-89
2022/01/11 12:00:29;;;;;;;53.20;23.00;;;3.40;99.90;;;;;;4874931;29;20483;-89
2022/01/11 12:03:00;;;;;;;49.92;23.17;;;3.50;99.90;;;;;;4875907;29;20041;-88
2022/01/11 12:05:36;;;;;;;50.60;21.25;;;3.60;99.90;;;;;;4863044;29;20076;-91
2022/01/11 12:08:31;;;;;;;50.55;21.70;;;3.60;99.90;;;;;;4870315;29;20499;-89
2022/01/11 12:10:58;;;;;;;;;;;3.70;99.90;;;;;;4878298;29;20131;-90
2022/01/11 12:13:39;;;;;;;52.42;22.23;;;3.70;99.90;;;;;;4862021;29;19974;-91
2022/01/11 12:16:24;;;;;;;49.05;20.75;;;3.70;99.90;;;;;;4854260;29;20045;-90
2022/01/11 12:18:59;;;;;;;46.13;20.20;;;3.70;99.90;;;;;;4876870;29;20116;-89
2022/01/11 12:21:27;;;;;;;48.70;21.48;;;3.70;99.90;;;;;;4875576;29;20056;-90
2022/01/11 12:23:53;;;;;;;46.83;20.45;;;3.80;99.90;;;;;;4853971;29;20045;-90
2022/01/11 12:26:25;;;;;;;43.90;19.27;;;3.80;99.90;;;;;;4861855;29;20040;-90